Prairietown, Illinois
Current Conditions -  °F | °C
As of 5:35 AM on Thursday 18 Dec 2014 (Local Time) from KALN Reporting Station
Overcast Overcast  
Wind Chill: 28°   Ceiling: 7500
Heat Index: 28°   Visibility: 10mi
Dew Point: 22°   Wind: 3mph
Humidity: 80%   Direction: 60°ENE
Pressure: 30.28"   Gusts: NA
Location:  38.9557°N, 89.8642°W
Report Text: KALN 181135Z AUTO 06003KT 10SM OVC075 M02/M05 A3028 RMK AO2 T10221053
Loading
Personal Weather Stations






























Interactive Weather Map New forecast layout! Learn more

10-Day Weather Forecast

Advertisements
Track Severe Weather on mobile